sensor_id;sensor_type;location;lat;lon;timestamp;P1;durP1;ratioP1;P2;durP2;ratioP2
59052;SDS011;44843;44.728;10.396;2023-04-24T00:00:27;4.15;;;2.20;;
59052;SDS011;44843;44.728;10.396;2023-04-24T00:02:52;4.90;;;2.92;;
59052;SDS011;44843;44.728;10.396;2023-04-24T00:05:23;6.70;;;2.78;;
59052;SDS011;44843;44.728;10.396;2023-04-24T00:07:49;4.95;;;2.53;;
59052;SDS011;44843;44.728;10.396;2023-04-24T00:10:17;5.22;;;3.22;;
59052;SDS011;44843;44.728;10.396;2023-04-24T00:12:43;6.07;;;3.30;;
59052;SDS011;44843;44.728;10.396;2023-04-24T00:15:09;5.93;;;2.97;;
59052;SDS011;44843;44.728;10.396;2023-04-24T00:17:35;5.53;;;3.60;;
59052;SDS011;44843;44.728;10.396;2023-04-24T00:20:00;4.05;;;3.22;;
59052;SDS011;44843;44.728;10.396;2023-04-24T00:22:29;4.88;;;3.15;;
59052;SDS011;44843;44.728;10.396;2023-04-24T00:24:55;5.13;;;2.83;;
59052;SDS011;44843;44.728;10.396;2023-04-24T00:27:21;5.25;;;3.22;;
59052;SDS011;44843;44.728;10.396;2023-04-24T00:29:46;4.50;;;3.17;;
59052;SDS011;44843;44.728;10.396;2023-04-24T00:32:12;5.32;;;2.83;;
59052;SDS011;44843;44.728;10.396;2023-04-24T00:34:38;5.93;;;3.70;;
59052;SDS011;44843;44.728;10.396;2023-04-24T00:37:03;6.53;;;3.95;;
59052;SDS011;44843;44.728;10.396;2023-04-24T00:39:28;4.60;;;3.38;;
59052;SDS011;44843;44.728;10.396;2023-04-24T00:41:54;6.05;;;3.33;;
59052;SDS011;44843;44.728;10.396;2023-04-24T00:44:20;5.18;;;3.80;;
59052;SDS011;44843;44.728;10.396;2023-04-24T00:46:45;8.52;;;4.05;;
59052;SDS011;44843;44.728;10.396;2023-04-24T00:49:12;5.05;;;3.67;;
59052;SDS011;44843;44.728;10.396;2023-04-24T00:51:38;5.13;;;3.53;;
59052;SDS011;44843;44.728;10.396;2023-04-24T00:54:05;6.97;;;3.85;;
59052;SDS011;44843;44.728;10.396;2023-04-24T01:01:22;6.32;;;3.40;;
59052;SDS011;44843;44.728;10.396;2023-04-24T01:03:51;7.05;;;3.97;;
59052;SDS011;44843;44.728;10.396;2023-04-24T01:06:16;6.95;;;3.85;;
59052;SDS011;44843;44.728;10.396;2023-04-24T01:08:43;4.60;;;4.07;;
59052;SDS011;44843;44.728;10.396;2023-04-24T01:11:11;5.55;;;3.70;;
59052;SDS011;44843;44.728;10.396;2023-04-24T01:13:36;7.40;;;4.15;;
59052;SDS011;44843;44.728;10.396;2023-04-24T01:16:02;7.18;;;4.05;;
59052;SDS011;44843;44.728;10.396;2023-04-24T01:18:27;7.25;;;4.30;;
59052;SDS011;44843;44.728;10.396;2023-04-24T01:20:53;7.00;;;4.25;;
59052;SDS011;44843;44.728;10.396;2023-04-24T01:23:25;8.15;;;4.68;;
59052;SDS011;44843;44.728;10.396;2023-04-24T01:25:51;5.68;;;4.35;;
59052;SDS011;44843;44.728;10.396;2023-04-24T01:28:17;5.72;;;4.40;;
59052;SDS011;44843;44.728;10.396;2023-04-24T01:30:43;7.47;;;5.00;;
59052;SDS011;44843;44.728;10.396;2023-04-24T01:33:08;7.45;;;4.40;;
59052;SDS011;44843;44.728;10.396;2023-04-24T01:35:35;6.15;;;4.25;;
59052;SDS011;44843;44.728;10.396;2023-04-24T01:38:02;6.60;;;4.78;;
59052;SDS011;44843;44.728;10.396;2023-04-24T01:40:28;8.45;;;4.47;;
59052;SDS011;44843;44.728;10.396;2023-04-24T01:42:53;6.10;;;4.80;;
59052;SDS011;44843;44.728;10.396;2023-04-24T01:45:19;6.55;;;4.43;;
59052;SDS011;44843;44.728;10.396;2023-04-24T01:47:45;8.63;;;5.25;;
59052;SDS011;44843;44.728;10.396;2023-04-24T01:50:12;5.95;;;4.85;;
59052;SDS011;44843;44.728;10.396;2023-04-24T01:52:38;7.50;;;5.75;;
59052;SDS011;44843;44.728;10.396;2023-04-24T01:55:04;8.18;;;4.85;;
59052;SDS011;44843;44.728;10.396;2023-04-24T01:57:30;7.80;;;5.88;;
59052;SDS011;44843;44.728;10.396;2023-04-24T01:59:56;9.13;;;6.38;;
59052;SDS011;44843;44.728;10.396;2023-04-24T02:02:22;9.80;;;6.10;;
59052;SDS011;44843;44.728;10.396;2023-04-24T02:04:49;9.90;;;5.75;;
59052;SDS011;44843;44.728;10.396;2023-04-24T02:07:15;7.75;;;5.20;;
59052;SDS011;44843;44.728;10.396;2023-04-24T02:09:40;9.13;;;5.05;;
59052;SDS011;44843;44.728;10.396;2023-04-24T02:12:06;5.60;;;5.05;;
59052;SDS011;44843;44.728;10.396;2023-04-24T02:14:31;9.90;;;5.47;;
59052;SDS011;44843;44.728;10.396;2023-04-24T02:16:57;9.85;;;6.00;;
59052;SDS011;44843;44.728;10.396;2023-04-24T02:19:22;7.05;;;6.03;;
59052;SDS011;44843;44.728;10.396;2023-04-24T02:21:48;8.32;;;6.30;;
59052;SDS011;44843;44.728;10.396;2023-04-24T02:24:13;7.87;;;6.47;;
59052;SDS011;44843;44.728;10.396;2023-04-24T02:26:38;8.57;;;5.88;;
59052;SDS011;44843;44.728;10.396;2023-04-24T02:29:04;8.10;;;5.90;;
59052;SDS011;44843;44.728;10.396;2023-04-24T02:31:29;8.70;;;5.75;;
59052;SDS011;44843;44.728;10.396;2023-04-24T02:33:55;9.07;;;5.75;;
59052;SDS011;44843;44.728;10.396;2023-04-24T02:36:20;9.13;;;6.20;;
59052;SDS011;44843;44.728;10.396;2023-04-24T02:38:46;11.40;;;6.70;;
59052;SDS011;44843;44.728;10.396;2023-04-24T02:41:11;10.00;;;6.03;;
59052;SDS011;44843;44.728;10.396;2023-04-24T02:43:36;8.07;;;5.72;;
59052;SDS011;44843;44.728;10.396;2023-04-24T02:46:02;8.90;;;5.07;;
59052;SDS011;44843;44.728;10.396;2023-04-24T02:48:27;8.00;;;5.85;;
59052;SDS011;44843;44.728;10.396;2023-04-24T02:50:53;8.20;;;5.57;;
59052;SDS011;44843;44.728;10.396;2023-04-24T02:53:18;7.40;;;5.70;;
59052;SDS011;44843;44.728;10.396;2023-04-24T02:58:10;6.25;;;5.45;;
59052;SDS011;44843;44.728;10.396;2023-04-24T03:00:37;8.63;;;5.80;;
59052;SDS011;44843;44.728;10.396;2023-04-24T03:03:03;8.35;;;5.55;;
59052;SDS011;44843;44.728;10.396;2023-04-24T03:05:28;9.48;;;6.05;;
59052;SDS011;44843;44.728;10.396;2023-04-24T03:07:55;8.52;;;6.32;;
59052;SDS011;44843;44.728;10.396;2023-04-24T03:10:21;9.15;;;6.43;;
59052;SDS011;44843;44.728;10.396;2023-04-24T03:12:47;9.93;;;6.68;;
59052;SDS011;44843;44.728;10.396;2023-04-24T03:15:13;8.20;;;6.07;;
59052;SDS011;44843;44.728;10.396;2023-04-24T03:17:38;12.25;;;6.50;;
59052;SDS011;44843;44.728;10.396;2023-04-24T03:20:04;7.88;;;6.28;;
59052;SDS011;44843;44.728;10.396;2023-04-24T03:22:30;8.18;;;6.68;;
59052;SDS011;44843;44.728;10.396;2023-04-24T03:24:57;9.07;;;6.18;;
59052;SDS011;44843;44.728;10.396;2023-04-24T03:27:23;11.57;;;6.57;;
59052;SDS011;44843;44.728;10.396;2023-04-24T03:29:48;8.40;;;6.25;;
59052;SDS011;44843;44.728;10.396;2023-04-24T03:32:18;7.38;;;6.25;;
59052;SDS011;44843;44.728;10.396;2023-04-24T03:34:44;9.48;;;5.97;;
59052;SDS011;44843;44.728;10.396;2023-04-24T03:37:09;10.95;;;6.30;;
59052;SDS011;44843;44.728;10.396;2023-04-24T03:39:35;10.43;;;6.72;;
59052;SDS011;44843;44.728;10.396;2023-04-24T03:42:00;8.50;;;6.32;;
59052;SDS011;44843;44.728;10.396;2023-04-24T03:44:26;10.95;;;6.43;;
59052;SDS011;44843;44.728;10.396;2023-04-24T03:46:51;8.02;;;5.65;;
59052;SDS011;44843;44.728;10.396;2023-04-24T03:49:17;8.55;;;6.53;;
59052;SDS011;44843;44.728;10.396;2023-04-24T03:51:42;7.95;;;5.72;;
59052;SDS011;44843;44.728;10.396;2023-04-24T03:56:33;7.13;;;5.88;;
59052;SDS011;44843;44.728;10.396;2023-04-24T03:58:58;10.25;;;6.45;;
59052;SDS011;44843;44.728;10.396;2023-04-24T04:01:23;13.27;;;8.20;;
59052;SDS011;44843;44.728;10.396;2023-04-24T04:03:49;8.93;;;6.93;;
59052;SDS011;44843;44.728;10.396;2023-04-24T04:06:14;8.10;;;6.63;;
59052;SDS011;44843;44.728;10.396;2023-04-24T04:08:40;10.30;;;6.70;;
59052;SDS011;44843;44.728;10.396;2023-04-24T04:11:05;10.52;;;6.28;;
59052;SDS011;44843;44.728;10.396;2023-04-24T04:13:31;10.15;;;6.47;;
59052;SDS011;44843;44.728;10.396;2023-04-24T04:15:56;9.13;;;6.68;;
59052;SDS011;44843;44.728;10.396;2023-04-24T04:18:21;10.73;;;6.72;;
59052;SDS011;44843;44.728;10.396;2023-04-24T04:20:47;7.47;;;6.43;;
59052;SDS011;44843;44.728;10.396;2023-04-24T04:23:12;8.90;;;6.97;;
59052;SDS011;44843;44.728;10.396;2023-04-24T04:25:38;11.15;;;6.65;;
59052;SDS011;44843;44.728;10.396;2023-04-24T04:28:03;9.40;;;7.20;;
59052;SDS011;44843;44.728;10.396;2023-04-24T04:30:28;10.43;;;7.30;;
59052;SDS011;44843;44.728;10.396;2023-04-24T04:32:57;9.43;;;6.78;;
59052;SDS011;44843;44.728;10.396;2023-04-24T04:37:48;7.72;;;6.75;;
59052;SDS011;44843;44.728;10.396;2023-04-24T04:47:36;9.27;;;6.20;;
59052;SDS011;44843;44.728;10.396;2023-04-24T04:50:02;9.32;;;6.65;;
59052;SDS011;44843;44.728;10.396;2023-04-24T04:52:28;7.75;;;6.20;;
59052;SDS011;44843;44.728;10.396;2023-04-24T04:54:54;7.80;;;6.03;;
59052;SDS011;44843;44.728;10.396;2023-04-24T04:57:20;12.02;;;7.20;;
59052;SDS011;44843;44.728;10.396;2023-04-24T04:59:46;8.48;;;6.15;;
59052;SDS011;44843;44.728;10.396;2023-04-24T05:02:11;7.25;;;5.82;;
59052;SDS011;44843;44.728;10.396;2023-04-24T05:04:37;8.02;;;6.50;;
59052;SDS011;44843;44.728;10.396;2023-04-24T05:07:03;10.52;;;6.18;;
59052;SDS011;44843;44.728;10.396;2023-04-24T05:09:28;11.73;;;6.55;;
59052;SDS011;44843;44.728;10.396;2023-04-24T05:11:54;9.25;;;6.47;;
59052;SDS011;44843;44.728;10.396;2023-04-24T05:14:20;10.52;;;7.20;;
59052;SDS011;44843;44.728;10.396;2023-04-24T05:16:45;11.63;;;7.32;;
59052;SDS011;44843;44.728;10.396;2023-04-24T05:19:11;9.30;;;6.50;;
59052;SDS011;44843;44.728;10.396;2023-04-24T05:21:38;10.15;;;6.30;;
59052;SDS011;44843;44.728;10.396;2023-04-24T05:24:05;8.98;;;6.53;;
59052;SDS011;44843;44.728;10.396;2023-04-24T05:26:31;7.80;;;6.22;;
59052;SDS011;44843;44.728;10.396;2023-04-24T05:28:56;12.23;;;6.70;;
59052;SDS011;44843;44.728;10.396;2023-04-24T05:31:21;11.85;;;6.30;;
59052;SDS011;44843;44.728;10.396;2023-04-24T05:33:47;9.18;;;6.30;;
59052;SDS011;44843;44.728;10.396;2023-04-24T05:36:12;8.73;;;6.85;;
59052;SDS011;44843;44.728;10.396;2023-04-24T05:38:38;10.88;;;6.57;;
59052;SDS011;44843;44.728;10.396;2023-04-24T05:41:03;11.90;;;6.53;;
59052;SDS011;44843;44.728;10.396;2023-04-24T05:43:29;13.73;;;6.55;;
59052;SDS011;44843;44.728;10.396;2023-04-24T05:45:54;10.63;;;6.90;;
59052;SDS011;44843;44.728;10.396;2023-04-24T05:48:20;9.15;;;6.60;;
59052;SDS011;44843;44.728;10.396;2023-04-24T05:50:47;11.93;;;6.97;;
59052;SDS011;44843;44.728;10.396;2023-04-24T05:53:13;10.80;;;7.15;;
59052;SDS011;44843;44.728;10.396;2023-04-24T05:55:38;12.05;;;7.05;;
59052;SDS011;44843;44.728;10.396;2023-04-24T05:58:04;9.38;;;6.85;;
59052;SDS011;44843;44.728;10.396;2023-04-24T06:00:29;12.05;;;6.90;;
59052;SDS011;44843;44.728;10.396;2023-04-24T06:02:55;11.20;;;8.00;;
59052;SDS011;44843;44.728;10.396;2023-04-24T06:05:20;11.25;;;7.28;;
59052;SDS011;44843;44.728;10.396;2023-04-24T06:07:46;12.45;;;7.25;;
59052;SDS011;44843;44.728;10.396;2023-04-24T06:10:13;11.60;;;7.70;;
59052;SDS011;44843;44.728;10.396;2023-04-24T06:12:38;10.32;;;7.78;;
59052;SDS011;44843;44.728;10.396;2023-04-24T06:15:03;10.73;;;7.90;;
59052;SDS011;44843;44.728;10.396;2023-04-24T06:17:30;13.10;;;8.05;;
59052;SDS011;44843;44.728;10.396;2023-04-24T06:19:56;13.90;;;7.80;;
59052;SDS011;44843;44.728;10.396;2023-04-24T06:22:21;11.05;;;8.27;;
59052;SDS011;44843;44.728;10.396;2023-04-24T06:24:46;12.68;;;8.23;;
59052;SDS011;44843;44.728;10.396;2023-04-24T06:27:13;12.95;;;8.00;;
59052;SDS011;44843;44.728;10.396;2023-04-24T06:29:38;13.27;;;7.93;;
59052;SDS011;44843;44.728;10.396;2023-04-24T06:32:04;17.77;;;8.27;;
59052;SDS011;44843;44.728;10.396;2023-04-24T06:34:30;13.82;;;8.88;;
59052;SDS011;44843;44.728;10.396;2023-04-24T06:36:55;10.48;;;7.68;;
59052;SDS011;44843;44.728;10.396;2023-04-24T06:39:21;12.50;;;8.77;;
59052;SDS011;44843;44.728;10.396;2023-04-24T06:41:47;13.98;;;8.45;;
59052;SDS011;44843;44.728;10.396;2023-04-24T06:44:12;13.82;;;9.23;;
59052;SDS011;44843;44.728;10.396;2023-04-24T06:46:39;11.68;;;8.77;;
59052;SDS011;44843;44.728;10.396;2023-04-24T06:49:05;11.60;;;8.15;;
59052;SDS011;44843;44.728;10.396;2023-04-24T06:51:31;13.45;;;8.98;;
59052;SDS011;44843;44.728;10.396;2023-04-24T06:53:58;13.15;;;8.20;;
59052;SDS011;44843;44.728;10.396;2023-04-24T06:56:24;11.75;;;8.57;;
59052;SDS011;44843;44.728;10.396;2023-04-24T06:58:50;11.10;;;8.27;;
59052;SDS011;44843;44.728;10.396;2023-04-24T07:01:16;17.00;;;8.82;;
59052;SDS011;44843;44.728;10.396;2023-04-24T07:03:42;10.40;;;7.38;;
59052;SDS011;44843;44.728;10.396;2023-04-24T07:06:08;12.60;;;7.97;;
59052;SDS011;44843;44.728;10.396;2023-04-24T07:08:36;14.30;;;7.60;;
59052;SDS011;44843;44.728;10.396;2023-04-24T07:11:01;9.70;;;7.78;;
59052;SDS011;44843;44.728;10.396;2023-04-24T07:13:27;11.18;;;7.88;;
59052;SDS011;44843;44.728;10.396;2023-04-24T07:15:53;12.90;;;8.40;;
59052;SDS011;44843;44.728;10.396;2023-04-24T07:20:45;10.57;;;7.07;;
59052;SDS011;44843;44.728;10.396;2023-04-24T07:28:01;10.32;;;6.57;;
59052;SDS011;44843;44.728;10.396;2023-04-24T07:30:27;7.68;;;5.78;;
59052;SDS011;44843;44.728;10.396;2023-04-24T07:32:54;7.03;;;5.35;;
59052;SDS011;44843;44.728;10.396;2023-04-24T07:35:20;6.72;;;6.03;;
59052;SDS011;44843;44.728;10.396;2023-04-24T07:37:46;8.23;;;5.80;;
59052;SDS011;44843;44.728;10.396;2023-04-24T07:40:12;8.98;;;6.75;;
59052;SDS011;44843;44.728;10.396;2023-04-24T07:42:38;10.70;;;6.47;;
59052;SDS011;44843;44.728;10.396;2023-04-24T07:45:03;9.27;;;5.30;;
59052;SDS011;44843;44.728;10.396;2023-04-24T07:47:30;7.15;;;5.30;;
59052;SDS011;44843;44.728;10.396;2023-04-24T07:49:56;9.00;;;5.70;;
59052;SDS011;44843;44.728;10.396;2023-04-24T07:52:22;5.60;;;4.55;;
59052;SDS011;44843;44.728;10.396;2023-04-24T07:54:47;10.73;;;4.80;;
59052;SDS011;44843;44.728;10.396;2023-04-24T07:57:12;8.47;;;6.07;;
59052;SDS011;44843;44.728;10.396;2023-04-24T07:59:38;10.27;;;5.60;;
59052;SDS011;44843;44.728;10.396;2023-04-24T08:02:04;7.90;;;5.30;;
59052;SDS011;44843;44.728;10.396;2023-04-24T08:04:31;9.88;;;5.93;;
59052;SDS011;44843;44.728;10.396;2023-04-24T08:06:56;9.95;;;5.57;;
59052;SDS011;44843;44.728;10.396;2023-04-24T08:09:22;9.18;;;6.00;;
59052;SDS011;44843;44.728;10.396;2023-04-24T08:11:47;10.27;;;6.83;;
59052;SDS011;44843;44.728;10.396;2023-04-24T08:14:12;9.95;;;6.78;;
59052;SDS011;44843;44.728;10.396;2023-04-24T08:16:39;9.50;;;6.22;;
59052;SDS011;44843;44.728;10.396;2023-04-24T08:19:05;8.98;;;6.32;;
59052;SDS011;44843;44.728;10.396;2023-04-24T08:21:31;11.40;;;7.10;;
59052;SDS011;44843;44.728;10.396;2023-04-24T08:23:57;6.03;;;5.40;;
59052;SDS011;44843;44.728;10.396;2023-04-24T08:26:22;9.27;;;6.15;;
59052;SDS011;44843;44.728;10.396;2023-04-24T08:31:13;10.00;;;5.88;;
59052;SDS011;44843;44.728;10.396;2023-04-24T08:33:38;8.48;;;5.80;;
59052;SDS011;44843;44.728;10.396;2023-04-24T08:36:05;11.30;;;5.72;;
59052;SDS011;44843;44.728;10.396;2023-04-24T08:38:32;9.07;;;5.22;;
59052;SDS011;44843;44.728;10.396;2023-04-24T08:40:58;8.35;;;5.45;;
59052;SDS011;44843;44.728;10.396;2023-04-24T08:43:24;8.65;;;6.13;;
59052;SDS011;44843;44.728;10.396;2023-04-24T08:45:51;9.48;;;5.43;;
59052;SDS011;44843;44.728;10.396;2023-04-24T08:48:18;7.05;;;5.28;;
59052;SDS011;44843;44.728;10.396;2023-04-24T08:50:43;7.70;;;5.72;;
59052;SDS011;44843;44.728;10.396;2023-04-24T08:53:10;7.93;;;4.93;;
59052;SDS011;44843;44.728;10.396;2023-04-24T08:55:36;9.23;;;5.47;;
59052;SDS011;44843;44.728;10.396;2023-04-24T08:58:02;7.97;;;4.90;;
59052;SDS011;44843;44.728;10.396;2023-04-24T09:00:28;7.07;;;4.85;;
59052;SDS011;44843;44.728;10.396;2023-04-24T09:02:54;8.35;;;4.25;;
59052;SDS011;44843;44.728;10.396;2023-04-24T09:05:21;8.95;;;4.35;;
59052;SDS011;44843;44.728;10.396;2023-04-24T09:07:49;4.90;;;3.78;;
59052;SDS011;44843;44.728;10.396;2023-04-24T09:10:19;8.20;;;4.10;;
59052;SDS011;44843;44.728;10.396;2023-04-24T09:12:45;5.95;;;3.33;;
59052;SDS011;44843;44.728;10.396;2023-04-24T09:15:11;7.38;;;3.47;;
59052;SDS011;44843;44.728;10.396;2023-04-24T09:17:37;4.00;;;3.30;;
59052;SDS011;44843;44.728;10.396;2023-04-24T09:20:03;5.88;;;3.92;;
59052;SDS011;44843;44.728;10.396;2023-04-24T09:22:29;8.10;;;4.57;;
59052;SDS011;44843;44.728;10.396;2023-04-24T09:25:05;7.82;;;4.38;;
59052;SDS011;44843;44.728;10.396;2023-04-24T09:27:33;8.98;;;4.22;;
59052;SDS011;44843;44.728;10.396;2023-04-24T09:29:59;7.88;;;4.35;;
59052;SDS011;44843;44.728;10.396;2023-04-24T09:32:25;10.70;;;4.32;;
59052;SDS011;44843;44.728;10.396;2023-04-24T09:35:08;8.65;;;4.47;;
59052;SDS011;44843;44.728;10.396;2023-04-24T09:37:45;6.05;;;3.67;;
59052;SDS011;44843;44.728;10.396;2023-04-24T09:42:44;5.38;;;4.68;;
59052;SDS011;44843;44.728;10.396;2023-04-24T09:45:27;6.50;;;4.65;;
59052;SDS011;44843;44.728;10.396;2023-04-24T09:47:55;6.10;;;4.78;;
59052;SDS011;44843;44.728;10.396;2023-04-24T09:50:20;6.57;;;4.50;;
59052;SDS011;44843;44.728;10.396;2023-04-24T09:52:47;9.07;;;5.07;;
59052;SDS011;44843;44.728;10.396;2023-04-24T09:55:21;6.55;;;4.88;;
59052;SDS011;44843;44.728;10.396;2023-04-24T09:58:05;8.65;;;5.00;;
59052;SDS011;44843;44.728;10.396;2023-04-24T10:00:33;7.15;;;4.15;;
59052;SDS011;44843;44.728;10.396;2023-04-24T10:05:29;7.05;;;3.55;;
59052;SDS011;44843;44.728;10.396;2023-04-24T10:07:56;6.30;;;4.45;;
59052;SDS011;44843;44.728;10.396;2023-04-24T10:10:23;6.65;;;3.95;;
59052;SDS011;44843;44.728;10.396;2023-04-24T10:12:48;6.03;;;3.75;;
59052;SDS011;44843;44.728;10.396;2023-04-24T10:15:16;4.05;;;3.05;;
59052;SDS011;44843;44.728;10.396;2023-04-24T10:17:45;5.03;;;3.38;;
59052;SDS011;44843;44.728;10.396;2023-04-24T10:20:17;5.15;;;3.83;;
59052;SDS011;44843;44.728;10.396;2023-04-24T10:22:50;7.17;;;3.30;;
59052;SDS011;44843;44.728;10.396;2023-04-24T10:25:18;3.75;;;2.80;;
59052;SDS011;44843;44.728;10.396;2023-04-24T10:27:45;5.50;;;3.67;;
59052;SDS011;44843;44.728;10.396;2023-04-24T10:30:11;4.45;;;2.95;;
59052;SDS011;44843;44.728;10.396;2023-04-24T10:32:37;3.70;;;3.28;;
59052;SDS011;44843;44.728;10.396;2023-04-24T10:35:03;5.72;;;3.83;;
59052;SDS011;44843;44.728;10.396;2023-04-24T10:40:00;2.63;;;2.30;;
59052;SDS011;44843;44.728;10.396;2023-04-24T10:42:26;9.45;;;3.53;;
59052;SDS011;44843;44.728;10.396;2023-04-24T10:52:09;7.25;;;3.67;;
59052;SDS011;44843;44.728;10.396;2023-04-24T11:00:14;5.38;;;4.15;;
59052;SDS011;44843;44.728;10.396;2023-04-24T11:02:45;5.63;;;3.80;;
59052;SDS011;44843;44.728;10.396;2023-04-24T11:05:14;5.53;;;3.90;;
59052;SDS011;44843;44.728;10.396;2023-04-24T11:10:46;3.75;;;3.25;;
59052;SDS011;44843;44.728;10.396;2023-04-24T11:13:21;3.83;;;3.47;;
59052;SDS011;44843;44.728;10.396;2023-04-24T11:16:11;4.25;;;3.45;;
59052;SDS011;44843;44.728;10.396;2023-04-24T11:19:04;4.97;;;2.80;;
59052;SDS011;44843;44.728;10.396;2023-04-24T11:24:23;5.97;;;3.58;;
59052;SDS011;44843;44.728;10.396;2023-04-24T11:32:23;7.03;;;3.55;;
59052;SDS011;44843;44.728;10.396;2023-04-24T11:34:51;3.63;;;3.15;;
59052;SDS011;44843;44.728;10.396;2023-04-24T11:37:18;6.20;;;3.55;;
59052;SDS011;44843;44.728;10.396;2023-04-24T11:39:44;4.47;;;3.13;;
59052;SDS011;44843;44.728;10.396;2023-04-24T11:42:09;8.18;;;4.43;;
59052;SDS011;44843;44.728;10.396;2023-04-24T11:44:35;7.55;;;4.45;;
59052;SDS011;44843;44.728;10.396;2023-04-24T11:47:04;5.40;;;4.43;;
59052;SDS011;44843;44.728;10.396;2023-04-24T11:49:30;5.65;;;3.65;;
59052;SDS011;44843;44.728;10.396;2023-04-24T11:51:56;5.63;;;4.10;;
59052;SDS011;44843;44.728;10.396;2023-04-24T11:54:21;5.07;;;4.57;;
59052;SDS011;44843;44.728;10.396;2023-04-24T11:56:47;7.15;;;4.15;;
59052;SDS011;44843;44.728;10.396;2023-04-24T11:59:13;5.13;;;3.75;;
59052;SDS011;44843;44.728;10.396;2023-04-24T12:01:45;3.90;;;3.50;;
59052;SDS011;44843;44.728;10.396;2023-04-24T12:04:12;8.63;;;5.25;;
59052;SDS011;44843;44.728;10.396;2023-04-24T12:06:38;8.23;;;6.05;;
59052;SDS011;44843;44.728;10.396;2023-04-24T12:09:03;5.60;;;4.90;;
59052;SDS011;44843;44.728;10.396;2023-04-24T12:11:29;6.75;;;4.85;;
59052;SDS011;44843;44.728;10.396;2023-04-24T12:13:55;4.95;;;4.30;;
59052;SDS011;44843;44.728;10.396;2023-04-24T12:16:20;9.27;;;5.95;;
59052;SDS011;44843;44.728;10.396;2023-04-24T12:18:46;7.63;;;5.68;;
59052;SDS011;44843;44.728;10.396;2023-04-24T12:21:21;5.82;;;5.25;;
59052;SDS011;44843;44.728;10.396;2023-04-24T12:23:47;6.03;;;5.07;;
59052;SDS011;44843;44.728;10.396;2023-04-24T12:26:19;6.07;;;5.45;;
59052;SDS011;44843;44.728;10.396;2023-04-24T12:28:48;8.63;;;5.45;;
59052;SDS011;44843;44.728;10.396;2023-04-24T12:31:17;7.50;;;5.80;;
59052;SDS011;44843;44.728;10.396;2023-04-24T12:33:46;7.72;;;5.60;;
59052;SDS011;44843;44.728;10.396;2023-04-24T12:36:11;7.00;;;5.53;;
59052;SDS011;44843;44.728;10.396;2023-04-24T12:38:37;8.82;;;6.03;;
59052;SDS011;44843;44.728;10.396;2023-04-24T12:41:07;6.35;;;5.30;;
59052;SDS011;44843;44.728;10.396;2023-04-24T12:43:33;5.85;;;4.88;;
59052;SDS011;44843;44.728;10.396;2023-04-24T12:45:59;7.32;;;4.60;;
59052;SDS011;44843;44.728;10.396;2023-04-24T12:48:26;7.65;;;5.35;;
59052;SDS011;44843;44.728;10.396;2023-04-24T12:50:52;5.88;;;4.35;;
59052;SDS011;44843;44.728;10.396;2023-04-24T12:53:17;4.25;;;3.63;;
59052;SDS011;44843;44.728;10.396;2023-04-24T12:55:43;5.40;;;4.80;;
59052;SDS011;44843;44.728;10.396;2023-04-24T12:58:09;5.75;;;5.05;;
59052;SDS011;44843;44.728;10.396;2023-04-24T13:00:35;7.35;;;4.60;;
59052;SDS011;44843;44.728;10.396;2023-04-24T13:03:01;6.10;;;4.97;;
59052;SDS011;44843;44.728;10.396;2023-04-24T13:05:26;5.57;;;4.40;;
59052;SDS011;44843;44.728;10.396;2023-04-24T13:07:52;7.35;;;4.53;;
59052;SDS011;44843;44.728;10.396;2023-04-24T13:10:17;6.43;;;5.00;;
59052;SDS011;44843;44.728;10.396;2023-04-24T13:12:44;8.23;;;4.20;;
59052;SDS011;44843;44.728;10.396;2023-04-24T13:15:11;6.57;;;5.32;;
59052;SDS011;44843;44.728;10.396;2023-04-24T13:17:36;5.07;;;4.50;;
59052;SDS011;44843;44.728;10.396;2023-04-24T13:20:02;6.00;;;4.47;;
59052;SDS011;44843;44.728;10.396;2023-04-24T13:22:27;5.32;;;4.25;;
59052;SDS011;44843;44.728;10.396;2023-04-24T13:24:53;8.07;;;4.28;;
59052;SDS011;44843;44.728;10.396;2023-04-24T13:27:18;6.20;;;5.60;;
59052;SDS011;44843;44.728;10.396;2023-04-24T13:29:44;5.82;;;4.90;;
59052;SDS011;44843;44.728;10.396;2023-04-24T13:32:10;7.97;;;4.47;;
59052;SDS011;44843;44.728;10.396;2023-04-24T13:34:35;5.75;;;3.95;;
59052;SDS011;44843;44.728;10.396;2023-04-24T13:37:01;7.00;;;4.53;;
59052;SDS011;44843;44.728;10.396;2023-04-24T13:39:28;8.30;;;4.28;;
59052;SDS011;44843;44.728;10.396;2023-04-24T13:41:54;2.70;;;2.30;;
59052;SDS011;44843;44.728;10.396;2023-04-24T13:44:20;3.10;;;2.30;;
59052;SDS011;44843;44.728;10.396;2023-04-24T13:46:48;3.63;;;2.10;;
59052;SDS011;44843;44.728;10.396;2023-04-24T13:49:15;3.17;;;1.52;;
59052;SDS011;44843;44.728;10.396;2023-04-24T13:51:41;1.80;;;1.67;;
59052;SDS011;44843;44.728;10.396;2023-04-24T13:54:07;1.88;;;1.00;;
59052;SDS011;44843;44.728;10.396;2023-04-24T13:56:32;2.20;;;1.40;;
59052;SDS011;44843;44.728;10.396;2023-04-24T13:58:58;1.70;;;1.00;;
59052;SDS011;44843;44.728;10.396;2023-04-24T14:01:23;2.33;;;1.10;;
59052;SDS011;44843;44.728;10.396;2023-04-24T14:03:53;1.20;;;0.82;;
59052;SDS011;44843;44.728;10.396;2023-04-24T14:06:19;1.95;;;0.80;;
59052;SDS011;44843;44.728;10.396;2023-04-24T14:08:45;2.72;;;0.77;;
59052;SDS011;44843;44.728;10.396;2023-04-24T14:11:10;4.15;;;0.70;;
59052;SDS011;44843;44.728;10.396;2023-04-24T14:13:36;0.75;;;0.70;;
59052;SDS011;44843;44.728;10.396;2023-04-24T14:16:05;1.17;;;0.80;;
59052;SDS011;44843;44.728;10.396;2023-04-24T14:20:56;0.50;;;0.50;;
59052;SDS011;44843;44.728;10.396;2023-04-24T14:23:22;3.92;;;0.77;;
59052;SDS011;44843;44.728;10.396;2023-04-24T14:30:41;0.70;;;0.52;;
59052;SDS011;44843;44.728;10.396;2023-04-24T14:33:07;2.78;;;0.80;;
59052;SDS011;44843;44.728;10.396;2023-04-24T14:35:32;1.60;;;0.63;;
59052;SDS011;44843;44.728;10.396;2023-04-24T14:37:59;1.70;;;0.80;;
59052;SDS011;44843;44.728;10.396;2023-04-24T14:42:50;1.17;;;0.65;;
59052;SDS011;44843;44.728;10.396;2023-04-24T14:45:16;0.95;;;0.75;;
59052;SDS011;44843;44.728;10.396;2023-04-24T14:47:41;1.90;;;0.60;;
59052;SDS011;44843;44.728;10.396;2023-04-24T14:50:07;2.03;;;0.70;;
59052;SDS011;44843;44.728;10.396;2023-04-24T14:52:33;2.00;;;0.70;;
59052;SDS011;44843;44.728;10.396;2023-04-24T14:54:59;2.77;;;0.87;;
59052;SDS011;44843;44.728;10.396;2023-04-24T14:59:49;2.60;;;0.80;;
59052;SDS011;44843;44.728;10.396;2023-04-24T15:02:15;0.85;;;0.60;;
59052;SDS011;44843;44.728;10.396;2023-04-24T15:04:40;0.80;;;0.50;;
59052;SDS011;44843;44.728;10.396;2023-04-24T15:07:06;1.48;;;0.65;;
59052;SDS011;44843;44.728;10.396;2023-04-24T15:09:31;3.30;;;0.70;;
59052;SDS011;44843;44.728;10.396;2023-04-24T15:11:57;0.50;;;0.50;;
59052;SDS011;44843;44.728;10.396;2023-04-24T15:14:23;1.90;;;0.60;;
59052;SDS011;44843;44.728;10.396;2023-04-24T15:16:48;1.52;;;0.60;;
59052;SDS011;44843;44.728;10.396;2023-04-24T15:19:14;1.38;;;0.60;;
59052;SDS011;44843;44.728;10.396;2023-04-24T15:21:39;0.98;;;0.70;;
59052;SDS011;44843;44.728;10.396;2023-04-24T15:24:09;0.65;;;0.60;;
59052;SDS011;44843;44.728;10.396;2023-04-24T15:26:35;0.82;;;0.50;;
59052;SDS011;44843;44.728;10.396;2023-04-24T15:29:00;3.28;;;0.60;;
59052;SDS011;44843;44.728;10.396;2023-04-24T15:33:51;2.20;;;0.63;;
59052;SDS011;44843;44.728;10.396;2023-04-24T15:36:17;0.82;;;0.63;;
59052;SDS011;44843;44.728;10.396;2023-04-24T15:38:43;2.72;;;0.60;;
59052;SDS011;44843;44.728;10.396;2023-04-24T15:41:09;2.25;;;0.43;;